sensor_id;sensor_type;location;lat;lon;timestamp;temperature;humidity
64634;DHT22;51043;52.406;9.690;2022-07-29T00:00:11;15.90;66.30
64634;DHT22;51043;52.406;9.690;2022-07-29T00:02:40;15.90;65.80
64634;DHT22;51043;52.406;9.690;2022-07-29T00:05:08;15.90;65.90
64634;DHT22;51043;52.406;9.690;2022-07-29T00:07:36;16.00;66.00
64634;DHT22;51043;52.406;9.690;2022-07-29T00:10:03;16.00;66.10
64634;DHT22;51043;52.406;9.690;2022-07-29T00:12:30;16.00;66.10
64634;DHT22;51043;52.406;9.690;2022-07-29T00:14:57;16.00;66.40
64634;DHT22;51043;52.406;9.690;2022-07-29T00:17:24;16.00;67.00
64634;DHT22;51043;52.406;9.690;2022-07-29T00:19:53;16.00;66.40
64634;DHT22;51043;52.406;9.690;2022-07-29T00:22:20;16.00;66.30
64634;DHT22;51043;52.406;9.690;2022-07-29T00:24:48;16.00;66.10
64634;DHT22;51043;52.406;9.690;2022-07-29T00:27:17;16.00;67.10
64634;DHT22;51043;52.406;9.690;2022-07-29T00:29:44;16.00;68.00
64634;DHT22;51043;52.406;9.690;2022-07-29T00:32:11;16.00;67.40
64634;DHT22;51043;52.406;9.690;2022-07-29T00:34:38;16.00;69.20
64634;DHT22;51043;52.406;9.690;2022-07-29T00:37:23;15.90;67.30
64634;DHT22;51043;52.406;9.690;2022-07-29T00:39:50;15.90;67.80
64634;DHT22;51043;52.406;9.690;2022-07-29T00:42:17;15.80;68.60
64634;DHT22;51043;52.406;9.690;2022-07-29T00:44:44;15.80;69.30
64634;DHT22;51043;52.406;9.690;2022-07-29T00:47:12;15.70;69.90
64634;DHT22;51043;52.406;9.690;2022-07-29T00:49:40;15.70;68.70
64634;DHT22;51043;52.406;9.690;2022-07-29T00:52:09;15.70;68.90
64634;DHT22;51043;52.406;9.690;2022-07-29T00:54:36;15.70;69.10
64634;DHT22;51043;52.406;9.690;2022-07-29T00:57:06;15.70;69.40
64634;DHT22;51043;52.406;9.690;2022-07-29T00:59:33;15.80;69.60
64634;DHT22;51043;52.406;9.690;2022-07-29T01:02:04;15.80;69.20
64634;DHT22;51043;52.406;9.690;2022-07-29T01:04:31;15.80;69.90
64634;DHT22;51043;52.406;9.690;2022-07-29T01:07:01;15.80;70.40
64634;DHT22;51043;52.406;9.690;2022-07-29T01:09:31;15.70;70.30
64634;DHT22;51043;52.406;9.690;2022-07-29T01:11:59;15.80;69.60
64634;DHT22;51043;52.406;9.690;2022-07-29T01:14:27;15.70;70.10
64634;DHT22;51043;52.406;9.690;2022-07-29T01:17:00;15.70;69.70
64634;DHT22;51043;52.406;9.690;2022-07-29T01:28:38;15.70;70.80
64634;DHT22;51043;52.406;9.690;2022-07-29T01:31:06;15.70;71.20
64634;DHT22;51043;52.406;9.690;2022-07-29T01:33:38;15.60;71.20
64634;DHT22;51043;52.406;9.690;2022-07-29T01:36:42;15.60;71.40
64634;DHT22;51043;52.406;9.690;2022-07-29T01:39:30;15.60;71.40
64634;DHT22;51043;52.406;9.690;2022-07-29T01:42:02;15.60;72.10
64634;DHT22;51043;52.406;9.690;2022-07-29T01:44:59;15.50;72.10
64634;DHT22;51043;52.406;9.690;2022-07-29T01:47:33;15.50;72.20
64634;DHT22;51043;52.406;9.690;2022-07-29T01:50:04;15.50;72.90
64634;DHT22;51043;52.406;9.690;2022-07-29T01:52:44;15.40;73.00
64634;DHT22;51043;52.406;9.690;2022-07-29T01:55:15;15.40;73.80
64634;DHT22;51043;52.406;9.690;2022-07-29T01:57:45;15.30;74.70
64634;DHT22;51043;52.406;9.690;2022-07-29T02:00:14;15.30;74.40
64634;DHT22;51043;52.406;9.690;2022-07-29T02:02:43;15.20;74.90
64634;DHT22;51043;52.406;9.690;2022-07-29T02:05:13;15.10;74.80
64634;DHT22;51043;52.406;9.690;2022-07-29T02:07:42;15.10;76.10
64634;DHT22;51043;52.406;9.690;2022-07-29T02:10:10;15.10;75.90
64634;DHT22;51043;52.406;9.690;2022-07-29T02:12:39;15.00;76.30
64634;DHT22;51043;52.406;9.690;2022-07-29T02:15:07;15.00;77.20
64634;DHT22;51043;52.406;9.690;2022-07-29T02:17:44;15.00;77.00
64634;DHT22;51043;52.406;9.690;2022-07-29T02:20:12;14.90;77.70
64634;DHT22;51043;52.406;9.690;2022-07-29T02:22:40;14.90;78.70
64634;DHT22;51043;52.406;9.690;2022-07-29T02:25:08;14.90;78.80
64634;DHT22;51043;52.406;9.690;2022-07-29T02:27:37;14.80;79.60
64634;DHT22;51043;52.406;9.690;2022-07-29T02:30:07;14.80;79.60
64634;DHT22;51043;52.406;9.690;2022-07-29T02:32:35;14.70;79.70
64634;DHT22;51043;52.406;9.690;2022-07-29T02:35:03;14.70;80.70
64634;DHT22;51043;52.406;9.690;2022-07-29T02:37:32;14.70;81.40
64634;DHT22;51043;52.406;9.690;2022-07-29T02:39:59;14.60;82.50
64634;DHT22;51043;52.406;9.690;2022-07-29T02:42:27;14.60;82.60
64634;DHT22;51043;52.406;9.690;2022-07-29T02:44:55;14.60;83.30
64634;DHT22;51043;52.406;9.690;2022-07-29T02:47:27;14.60;84.40
64634;DHT22;51043;52.406;9.690;2022-07-29T02:50:00;14.50;84.50
64634;DHT22;51043;52.406;9.690;2022-07-29T02:52:41;14.50;84.90
64634;DHT22;51043;52.406;9.690;2022-07-29T02:55:21;14.60;86.20
64634;DHT22;51043;52.406;9.690;2022-07-29T02:58:02;14.60;86.20
64634;DHT22;51043;52.406;9.690;2022-07-29T03:00:31;14.70;86.50
64634;DHT22;51043;52.406;9.690;2022-07-29T03:03:04;14.60;87.20
64634;DHT22;51043;52.406;9.690;2022-07-29T03:05:32;14.60;87.60
64634;DHT22;51043;52.406;9.690;2022-07-29T03:08:06;14.60;88.00
64634;DHT22;51043;52.406;9.690;2022-07-29T03:10:35;14.60;89.40
64634;DHT22;51043;52.406;9.690;2022-07-29T03:13:05;14.70;89.40
64634;DHT22;51043;52.406;9.690;2022-07-29T03:15:32;14.70;89.50
64634;DHT22;51043;52.406;9.690;2022-07-29T03:18:00;14.70;90.10
64634;DHT22;51043;52.406;9.690;2022-07-29T03:20:27;14.70;90.50
64634;DHT22;51043;52.406;9.690;2022-07-29T03:22:54;14.80;90.50
64634;DHT22;51043;52.406;9.690;2022-07-29T03:25:21;14.80;90.70
64634;DHT22;51043;52.406;9.690;2022-07-29T03:27:48;14.70;90.80
64634;DHT22;51043;52.406;9.690;2022-07-29T03:30:15;14.70;91.00
64634;DHT22;51043;52.406;9.690;2022-07-29T03:32:42;14.70;91.60
64634;DHT22;51043;52.406;9.690;2022-07-29T03:35:09;14.70;91.60
64634;DHT22;51043;52.406;9.690;2022-07-29T03:37:36;14.80;92.00
64634;DHT22;51043;52.406;9.690;2022-07-29T03:40:05;14.70;92.20
64634;DHT22;51043;52.406;9.690;2022-07-29T03:42:36;14.70;91.90
64634;DHT22;51043;52.406;9.690;2022-07-29T03:45:10;14.70;92.30
64634;DHT22;51043;52.406;9.690;2022-07-29T03:47:40;14.70;92.60
64634;DHT22;51043;52.406;9.690;2022-07-29T03:50:11;14.70;93.20
64634;DHT22;51043;52.406;9.690;2022-07-29T03:52:41;14.70;93.50
64634;DHT22;51043;52.406;9.690;2022-07-29T03:55:09;14.60;93.50
64634;DHT22;51043;52.406;9.690;2022-07-29T03:57:36;14.70;93.80
64634;DHT22;51043;52.406;9.690;2022-07-29T04:00:10;14.60;94.00
64634;DHT22;51043;52.406;9.690;2022-07-29T04:02:38;14.60;94.30
64634;DHT22;51043;52.406;9.690;2022-07-29T04:05:12;14.60;94.20
64634;DHT22;51043;52.406;9.690;2022-07-29T04:07:40;14.70;94.60
64634;DHT22;51043;52.406;9.690;2022-07-29T04:10:08;14.60;94.80
64634;DHT22;51043;52.406;9.690;2022-07-29T04:12:35;14.70;94.90
64634;DHT22;51043;52.406;9.690;2022-07-29T04:15:06;14.70;94.90
64634;DHT22;51043;52.406;9.690;2022-07-29T04:17:33;14.80;95.10
64634;DHT22;51043;52.406;9.690;2022-07-29T04:20:00;14.80;95.40
64634;DHT22;51043;52.406;9.690;2022-07-29T04:22:27;14.70;95.40
64634;DHT22;51043;52.406;9.690;2022-07-29T04:24:54;14.80;95.50
64634;DHT22;51043;52.406;9.690;2022-07-29T04:27:22;14.80;95.60
64634;DHT22;51043;52.406;9.690;2022-07-29T04:29:49;14.80;95.90
64634;DHT22;51043;52.406;9.690;2022-07-29T04:32:16;14.80;96.40
64634;DHT22;51043;52.406;9.690;2022-07-29T04:34:43;14.80;96.10
64634;DHT22;51043;52.406;9.690;2022-07-29T04:37:12;14.80;96.50
64634;DHT22;51043;52.406;9.690;2022-07-29T04:39:39;14.80;96.80
64634;DHT22;51043;52.406;9.690;2022-07-29T04:42:06;14.80;96.60
64634;DHT22;51043;52.406;9.690;2022-07-29T04:44:33;14.90;96.90
64634;DHT22;51043;52.406;9.690;2022-07-29T04:47:00;14.90;96.70
64634;DHT22;51043;52.406;9.690;2022-07-29T04:49:26;14.90;97.30
64634;DHT22;51043;52.406;9.690;2022-07-29T04:51:53;15.00;97.00
64634;DHT22;51043;52.406;9.690;2022-07-29T04:54:20;15.00;97.00
64634;DHT22;51043;52.406;9.690;2022-07-29T04:56:47;15.00;97.20
64634;DHT22;51043;52.406;9.690;2022-07-29T04:59:14;15.00;97.30
64634;DHT22;51043;52.406;9.690;2022-07-29T05:01:41;15.00;97.30
64634;DHT22;51043;52.406;9.690;2022-07-29T05:04:08;15.00;97.60
64634;DHT22;51043;52.406;9.690;2022-07-29T05:06:34;15.10;97.50
64634;DHT22;51043;52.406;9.690;2022-07-29T05:09:02;15.20;97.50
64634;DHT22;51043;52.406;9.690;2022-07-29T05:11:28;15.30;97.50
64634;DHT22;51043;52.406;9.690;2022-07-29T05:13:56;15.30;97.60
64634;DHT22;51043;52.406;9.690;2022-07-29T05:16:22;15.40;97.50
64634;DHT22;51043;52.406;9.690;2022-07-29T05:18:49;15.50;97.30
64634;DHT22;51043;52.406;9.690;2022-07-29T05:21:16;15.50;97.30
64634;DHT22;51043;52.406;9.690;2022-07-29T05:23:43;15.60;97.50
64634;DHT22;51043;52.406;9.690;2022-07-29T05:26:09;15.70;97.60
64634;DHT22;51043;52.406;9.690;2022-07-29T05:28:37;15.80;97.20
64634;DHT22;51043;52.406;9.690;2022-07-29T05:31:04;15.90;97.10
64634;DHT22;51043;52.406;9.690;2022-07-29T05:33:31;16.00;96.70
64634;DHT22;51043;52.406;9.690;2022-07-29T05:35:58;16.00;96.80
64634;DHT22;51043;52.406;9.690;2022-07-29T05:38:26;16.10;96.90
64634;DHT22;51043;52.406;9.690;2022-07-29T05:40:59;16.10;97.20
64634;DHT22;51043;52.406;9.690;2022-07-29T05:43:30;16.20;97.00
64634;DHT22;51043;52.406;9.690;2022-07-29T05:45:56;16.30;96.40
64634;DHT22;51043;52.406;9.690;2022-07-29T05:48:24;16.40;96.30
64634;DHT22;51043;52.406;9.690;2022-07-29T05:50:51;16.50;96.10
64634;DHT22;51043;52.406;9.690;2022-07-29T05:53:18;16.50;96.10
64634;DHT22;51043;52.406;9.690;2022-07-29T05:55:47;16.50;96.10
64634;DHT22;51043;52.406;9.690;2022-07-29T05:58:13;16.50;96.10
64634;DHT22;51043;52.406;9.690;2022-07-29T06:00:41;16.50;96.10
64634;DHT22;51043;52.406;9.690;2022-07-29T06:03:07;16.60;96.00
64634;DHT22;51043;52.406;9.690;2022-07-29T06:05:34;16.60;96.20
64634;DHT22;51043;52.406;9.690;2022-07-29T06:08:02;16.70;96.10
64634;DHT22;51043;52.406;9.690;2022-07-29T06:10:32;16.80;96.00
64634;DHT22;51043;52.406;9.690;2022-07-29T06:12:59;16.90;96.10
64634;DHT22;51043;52.406;9.690;2022-07-29T06:15:26;17.00;95.80
64634;DHT22;51043;52.406;9.690;2022-07-29T06:17:56;17.20;95.30
64634;DHT22;51043;52.406;9.690;2022-07-29T06:20:22;17.40;95.20
64634;DHT22;51043;52.406;9.690;2022-07-29T06:22:49;17.70;94.80
64634;DHT22;51043;52.406;9.690;2022-07-29T06:25:16;18.00;94.20
64634;DHT22;51043;52.406;9.690;2022-07-29T06:27:43;18.10;93.60
64634;DHT22;51043;52.406;9.690;2022-07-29T06:30:10;18.20;93.20
64634;DHT22;51043;52.406;9.690;2022-07-29T06:32:37;18.30;93.20
64634;DHT22;51043;52.406;9.690;2022-07-29T06:35:07;18.50;92.70
64634;DHT22;51043;52.406;9.690;2022-07-29T06:37:50;18.50;92.20
64634;DHT22;51043;52.406;9.690;2022-07-29T06:40:18;18.50;92.30
64634;DHT22;51043;52.406;9.690;2022-07-29T06:43:03;18.60;92.00
64634;DHT22;51043;52.406;9.690;2022-07-29T06:45:33;18.80;92.00
64634;DHT22;51043;52.406;9.690;2022-07-29T06:47:59;18.90;91.70
64634;DHT22;51043;52.406;9.690;2022-07-29T06:50:30;19.00;91.20
64634;DHT22;51043;52.406;9.690;2022-07-29T06:52:57;19.20;91.40
64634;DHT22;51043;52.406;9.690;2022-07-29T06:55:24;19.50;91.30
64634;DHT22;51043;52.406;9.690;2022-07-29T06:57:51;19.60;90.40
64634;DHT22;51043;52.406;9.690;2022-07-29T07:00:18;19.80;89.40
64634;DHT22;51043;52.406;9.690;2022-07-29T07:02:44;19.80;89.30
64634;DHT22;51043;52.406;9.690;2022-07-29T07:05:11;19.80;88.60
64634;DHT22;51043;52.406;9.690;2022-07-29T07:07:38;19.90;89.60
64634;DHT22;51043;52.406;9.690;2022-07-29T07:10:06;20.00;88.90
64634;DHT22;51043;52.406;9.690;2022-07-29T07:12:33;20.10;88.40
64634;DHT22;51043;52.406;9.690;2022-07-29T07:15:00;20.30;88.10
64634;DHT22;51043;52.406;9.690;2022-07-29T07:17:27;20.40;86.40
64634;DHT22;51043;52.406;9.690;2022-07-29T07:19:53;20.70;85.60
64634;DHT22;51043;52.406;9.690;2022-07-29T07:22:20;21.10;84.30
64634;DHT22;51043;52.406;9.690;2022-07-29T07:24:47;21.60;82.30
64634;DHT22;51043;52.406;9.690;2022-07-29T07:27:14;21.80;82.40
64634;DHT22;51043;52.406;9.690;2022-07-29T07:29:41;22.10;79.60
64634;DHT22;51043;52.406;9.690;2022-07-29T07:32:08;22.10;77.40
64634;DHT22;51043;52.406;9.690;2022-07-29T07:34:34;22.20;77.90
64634;DHT22;51043;52.406;9.690;2022-07-29T07:37:01;22.00;77.50
64634;DHT22;51043;52.406;9.690;2022-07-29T07:39:28;22.00;75.90
64634;DHT22;51043;52.406;9.690;2022-07-29T07:41:55;22.00;76.80
64634;DHT22;51043;52.406;9.690;2022-07-29T07:44:22;21.90;76.90
64634;DHT22;51043;52.406;9.690;2022-07-29T07:46:49;21.70;76.70
64634;DHT22;51043;52.406;9.690;2022-07-29T07:49:16;21.40;76.70
64634;DHT22;51043;52.406;9.690;2022-07-29T07:51:43;21.30;77.60
64634;DHT22;51043;52.406;9.690;2022-07-29T07:54:09;21.20;79.00
64634;DHT22;51043;52.406;9.690;2022-07-29T07:56:36;21.10;77.10
64634;DHT22;51043;52.406;9.690;2022-07-29T07:59:04;21.00;77.60
64634;DHT22;51043;52.406;9.690;2022-07-29T08:01:31;20.90;78.90
64634;DHT22;51043;52.406;9.690;2022-07-29T08:03:57;20.70;78.50
64634;DHT22;51043;52.406;9.690;2022-07-29T08:06:24;20.70;78.40
64634;DHT22;51043;52.406;9.690;2022-07-29T08:08:51;20.70;78.20
64634;DHT22;51043;52.406;9.690;2022-07-29T08:11:21;20.70;79.30
64634;DHT22;51043;52.406;9.690;2022-07-29T08:13:48;20.60;79.90
64634;DHT22;51043;52.406;9.690;2022-07-29T08:16:15;20.70;80.20
64634;DHT22;51043;52.406;9.690;2022-07-29T08:18:43;20.70;80.70
64634;DHT22;51043;52.406;9.690;2022-07-29T08:21:11;20.60;80.10
64634;DHT22;51043;52.406;9.690;2022-07-29T08:23:39;20.60;80.00
64634;DHT22;51043;52.406;9.690;2022-07-29T08:26:08;20.60;80.20
64634;DHT22;51043;52.406;9.690;2022-07-29T08:28:41;20.60;80.20
64634;DHT22;51043;52.406;9.690;2022-07-29T08:31:12;20.50;79.00
64634;DHT22;51043;52.406;9.690;2022-07-29T08:33:39;20.40;78.80
64634;DHT22;51043;52.406;9.690;2022-07-29T08:36:07;20.40;79.00
64634;DHT22;51043;52.406;9.690;2022-07-29T08:38:37;20.40;80.10
64634;DHT22;51043;52.406;9.690;2022-07-29T08:41:04;20.40;79.80
64634;DHT22;51043;52.406;9.690;2022-07-29T08:43:31;20.40;78.90
64634;DHT22;51043;52.406;9.690;2022-07-29T08:46:03;20.50;78.90
64634;DHT22;51043;52.406;9.690;2022-07-29T08:48:31;20.60;79.20
64634;DHT22;51043;52.406;9.690;2022-07-29T08:50:59;20.70;79.70
64634;DHT22;51043;52.406;9.690;2022-07-29T08:53:28;20.80;79.20
64634;DHT22;51043;52.406;9.690;2022-07-29T08:55:55;21.00;79.40
64634;DHT22;51043;52.406;9.690;2022-07-29T08:58:23;21.10;79.70
64634;DHT22;51043;52.406;9.690;2022-07-29T09:00:55;21.20;78.80
64634;DHT22;51043;52.406;9.690;2022-07-29T09:03:24;21.30;78.10
64634;DHT22;51043;52.406;9.690;2022-07-29T09:05:51;21.70;78.40
64634;DHT22;51043;52.406;9.690;2022-07-29T09:08:21;22.00;76.20
64634;DHT22;51043;52.406;9.690;2022-07-29T09:10:49;22.20;75.70
64634;DHT22;51043;52.406;9.690;2022-07-29T09:13:16;22.40;74.20
64634;DHT22;51043;52.406;9.690;2022-07-29T09:15:44;22.60;74.20
64634;DHT22;51043;52.406;9.690;2022-07-29T09:18:11;22.90;72.50
64634;DHT22;51043;52.406;9.690;2022-07-29T09:20:38;23.00;71.70
64634;DHT22;51043;52.406;9.690;2022-07-29T09:23:26;23.10;71.10
64634;DHT22;51043;52.406;9.690;2022-07-29T09:25:53;23.40;71.10
64634;DHT22;51043;52.406;9.690;2022-07-29T09:28:20;23.50;70.60
64634;DHT22;51043;52.406;9.690;2022-07-29T09:30:54;23.40;70.70
64634;DHT22;51043;52.406;9.690;2022-07-29T09:33:22;23.30;70.20
64634;DHT22;51043;52.406;9.690;2022-07-29T09:36:03;23.40;70.40
64634;DHT22;51043;52.406;9.690;2022-07-29T09:38:31;23.50;69.40
64634;DHT22;51043;52.406;9.690;2022-07-29T09:41:00;23.60;70.50
64634;DHT22;51043;52.406;9.690;2022-07-29T09:43:27;23.90;68.50
64634;DHT22;51043;52.406;9.690;2022-07-29T09:45:54;24.00;67.40
64634;DHT22;51043;52.406;9.690;2022-07-29T09:48:23;24.00;66.40
64634;DHT22;51043;52.406;9.690;2022-07-29T09:50:51;23.80;68.30
64634;DHT22;51043;52.406;9.690;2022-07-29T09:53:36;23.80;67.10
64634;DHT22;51043;52.406;9.690;2022-07-29T09:56:04;23.70;67.10
64634;DHT22;51043;52.406;9.690;2022-07-29T09:58:31;23.70;65.00
64634;DHT22;51043;52.406;9.690;2022-07-29T10:01:00;23.50;65.60
64634;DHT22;51043;52.406;9.690;2022-07-29T10:03:27;23.40;65.10
64634;DHT22;51043;52.406;9.690;2022-07-29T10:06:11;23.20;65.90
64634;DHT22;51043;52.406;9.690;2022-07-29T10:08:41;23.20;65.90
64634;DHT22;51043;52.406;9.690;2022-07-29T10:11:14;23.50;66.20
64634;DHT22;51043;52.406;9.690;2022-07-29T10:13:46;23.70;66.10
64634;DHT22;51043;52.406;9.690;2022-07-29T10:16:14;24.00;65.50
64634;DHT22;51043;52.406;9.690;2022-07-29T10:18:44;24.40;64.80
64634;DHT22;51043;52.406;9.690;2022-07-29T10:21:12;24.80;64.60
64634;DHT22;51043;52.406;9.690;2022-07-29T10:23:39;24.90;62.60
64634;DHT22;51043;52.406;9.690;2022-07-29T10:26:07;25.00;62.80
64634;DHT22;51043;52.406;9.690;2022-07-29T10:28:36;25.10;61.50
64634;DHT22;51043;52.406;9.690;2022-07-29T10:31:06;25.10;61.60
64634;DHT22;51043;52.406;9.690;2022-07-29T10:33:43;25.00;62.80
64634;DHT22;51043;52.406;9.690;2022-07-29T10:36:42;24.80;61.90
64634;DHT22;51043;52.406;9.690;2022-07-29T10:42:19;24.50;65.40
64634;DHT22;51043;52.406;9.690;2022-07-29T10:44:48;24.50;65.00
64634;DHT22;51043;52.406;9.690;2022-07-29T10:47:25;24.50;62.90
64634;DHT22;51043;52.406;9.690;2022-07-29T10:50:01;24.50;62.70
64634;DHT22;51043;52.406;9.690;2022-07-29T10:58:22;24.30;62.60
64634;DHT22;51043;52.406;9.690;2022-07-29T11:00:53;24.30;62.80
64634;DHT22;51043;52.406;9.690;2022-07-29T11:03:46;24.10;63.70
64634;DHT22;51043;52.406;9.690;2022-07-29T11:06:13;24.10;63.10
64634;DHT22;51043;52.406;9.690;2022-07-29T11:08:41;24.00;64.50
64634;DHT22;51043;52.406;9.690;2022-07-29T11:13:48;23.80;65.10
64634;DHT22;51043;52.406;9.690;2022-07-29T11:16:20;23.70;65.80
64634;DHT22;51043;52.406;9.690;2022-07-29T11:19:19;23.50;66.40
64634;DHT22;51043;52.406;9.690;2022-07-29T11:21:46;23.30;66.50
64634;DHT22;51043;52.406;9.690;2022-07-29T11:24:19;23.40;67.80
64634;DHT22;51043;52.406;9.690;2022-07-29T11:27:07;23.40;67.90
64634;DHT22;51043;52.406;9.690;2022-07-29T11:29:54;23.70;67.10
64634;DHT22;51043;52.406;9.690;2022-07-29T11:32:22;24.00;66.00
64634;DHT22;51043;52.406;9.690;2022-07-29T11:35:12;24.10;65.50
64634;DHT22;51043;52.406;9.690;2022-07-29T11:37:39;24.20;64.70
64634;DHT22;51043;52.406;9.690;2022-07-29T11:42:37;24.60;64.30
64634;DHT22;51043;52.406;9.690;2022-07-29T11:45:16;24.80;63.70
64634;DHT22;51043;52.406;9.690;2022-07-29T11:47:48;25.00;63.00
64634;DHT22;51043;52.406;9.690;2022-07-29T11:50:30;25.20;62.10
64634;DHT22;51043;52.406;9.690;2022-07-29T11:52:58;25.40;62.20
64634;DHT22;51043;52.406;9.690;2022-07-29T11:55:25;25.60;61.20
64634;DHT22;51043;52.406;9.690;2022-07-29T11:57:54;25.60;61.90
64634;DHT22;51043;52.406;9.690;2022-07-29T12:00:27;25.70;59.30
64634;DHT22;51043;52.406;9.690;2022-07-29T12:02:56;25.50;60.60
64634;DHT22;51043;52.406;9.690;2022-07-29T12:05:44;25.50;59.90
64634;DHT22;51043;52.406;9.690;2022-07-29T12:08:19;25.50;59.70
64634;DHT22;51043;52.406;9.690;2022-07-29T12:10:48;25.70;60.20
64634;DHT22;51043;52.406;9.690;2022-07-29T12:13:17;25.90;60.00
64634;DHT22;51043;52.406;9.690;2022-07-29T12:15:55;25.90;60.30
64634;DHT22;51043;52.406;9.690;2022-07-29T12:18:23;26.10;59.30
64634;DHT22;51043;52.406;9.690;2022-07-29T12:20:58;26.20;58.80
64634;DHT22;51043;52.406;9.690;2022-07-29T12:23:25;26.30;58.20
64634;DHT22;51043;52.406;9.690;2022-07-29T12:25:52;26.20;58.60
64634;DHT22;51043;52.406;9.690;2022-07-29T12:28:19;26.20;58.80
64634;DHT22;51043;52.406;9.690;2022-07-29T12:30:49;26.20;58.80
64634;DHT22;51043;52.406;9.690;2022-07-29T12:33:24;26.10;58.00
64634;DHT22;51043;52.406;9.690;2022-07-29T12:35:58;26.00;58.40
64634;DHT22;51043;52.406;9.690;2022-07-29T12:38:34;25.80;58.50
64634;DHT22;51043;52.406;9.690;2022-07-29T12:41:02;25.60;58.80
64634;DHT22;51043;52.406;9.690;2022-07-29T12:43:30;25.60;59.00
64634;DHT22;51043;52.406;9.690;2022-07-29T12:45:57;25.70;58.20
64634;DHT22;51043;52.406;9.690;2022-07-29T12:48:39;25.80;57.70
64634;DHT22;51043;52.406;9.690;2022-07-29T12:51:07;26.10;57.90
64634;DHT22;51043;52.406;9.690;2022-07-29T12:53:36;26.30;58.40
64634;DHT22;51043;52.406;9.690;2022-07-29T12:56:04;26.50;56.70
64634;DHT22;51043;52.406;9.690;2022-07-29T12:58:39;26.60;57.90
64634;DHT22;51043;52.406;9.690;2022-07-29T13:01:14;26.90;56.10
64634;DHT22;51043;52.406;9.690;2022-07-29T13:03:56;27.10;55.00
64634;DHT22;51043;52.406;9.690;2022-07-29T13:06:47;27.20;54.80
64634;DHT22;51043;52.406;9.690;2022-07-29T13:09:19;27.20;56.00
64634;DHT22;51043;52.406;9.690;2022-07-29T13:11:48;27.00;54.90
64634;DHT22;51043;52.406;9.690;2022-07-29T13:14:39;27.00;54.80
64634;DHT22;51043;52.406;9.690;2022-07-29T13:17:13;26.90;54.30
64634;DHT22;51043;52.406;9.690;2022-07-29T13:19:47;26.90;54.50
64634;DHT22;51043;52.406;9.690;2022-07-29T13:24:50;26.70;55.20
64634;DHT22;51043;52.406;9.690;2022-07-29T13:27:18;26.60;55.80
64634;DHT22;51043;52.406;9.690;2022-07-29T13:29:46;26.70;55.80
64634;DHT22;51043;52.406;9.690;2022-07-29T13:32:13;26.80;55.60
64634;DHT22;51043;52.406;9.690;2022-07-29T13:34:40;26.80;55.00
64634;DHT22;51043;52.406;9.690;2022-07-29T13:37:07;26.80;54.60
64634;DHT22;51043;52.406;9.690;2022-07-29T13:39:37;26.70;54.30
64634;DHT22;51043;52.406;9.690;2022-07-29T13:42:06;26.80;54.60
64634;DHT22;51043;52.406;9.690;2022-07-29T13:44:36;26.80;54.10
64634;DHT22;51043;52.406;9.690;2022-07-29T13:47:03;26.80;54.20
64634;DHT22;51043;52.406;9.690;2022-07-29T13:49:33;26.80;54.30
64634;DHT22;51043;52.406;9.690;2022-07-29T13:56:05;27.10;52.50
64634;DHT22;51043;52.406;9.690;2022-07-29T13:58:33;27.30;53.10
64634;DHT22;51043;52.406;9.690;2022-07-29T14:01:00;27.50;50.80
64634;DHT22;51043;52.406;9.690;2022-07-29T14:03:27;27.70;50.90
64634;DHT22;51043;52.406;9.690;2022-07-29T14:05:54;27.90;49.40
64634;DHT22;51043;52.406;9.690;2022-07-29T14:08:22;27.90;50.40
64634;DHT22;51043;52.406;9.690;2022-07-29T14:10:49;28.30;49.90
64634;DHT22;51043;52.406;9.690;2022-07-29T14:13:16;29.90;47.50
64634;DHT22;51043;52.406;9.690;2022-07-29T14:15:46;32.20;43.30
64634;DHT22;51043;52.406;9.690;2022-07-29T14:18:12;34.10;38.50
64634;DHT22;51043;52.406;9.690;2022-07-29T14:20:40;35.20;35.50
64634;DHT22;51043;52.406;9.690;2022-07-29T14:23:09;35.80;34.30
64634;DHT22;51043;52.406;9.690;2022-07-29T14:25:36;35.80;34.20
64634;DHT22;51043;52.406;9.690;2022-07-29T14:28:03;35.20;33.50
64634;DHT22;51043;52.406;9.690;2022-07-29T14:30:30;34.50;34.80
64634;DHT22;51043;52.406;9.690;2022-07-29T14:32:56;34.40;34.90
64634;DHT22;51043;52.406;9.690;2022-07-29T14:35:24;34.30;34.40
64634;DHT22;51043;52.406;9.690;2022-07-29T14:37:50;34.50;33.40
64634;DHT22;51043;52.406;9.690;2022-07-29T14:40:17;35.20;33.20
64634;DHT22;51043;52.406;9.690;2022-07-29T14:42:44;35.40;33.00
64634;DHT22;51043;52.406;9.690;2022-07-29T14:45:11;35.60;31.90
64634;DHT22;51043;52.406;9.690;2022-07-29T14:47:38;35.80;31.20
64634;DHT22;51043;52.406;9.690;2022-07-29T14:50:06;35.80;30.90
64634;DHT22;51043;52.406;9.690;2022-07-29T14:52:33;35.10;32.00
64634;DHT22;51043;52.406;9.690;2022-07-29T14:55:00;34.30;33.10
64634;DHT22;51043;52.406;9.690;2022-07-29T14:57:27;33.50;34.30
64634;DHT22;51043;52.406;9.690;2022-07-29T14:59:55;32.60;35.60
64634;DHT22;51043;52.406;9.690;2022-07-29T15:02:21;31.90;36.50
64634;DHT22;51043;52.406;9.690;2022-07-29T15:04:49;31.50;37.40
64634;DHT22;51043;52.406;9.690;2022-07-29T15:07:18;31.00;37.20
64634;DHT22;51043;52.406;9.690;2022-07-29T15:09:45;30.70;38.40
64634;DHT22;51043;52.406;9.690;2022-07-29T15:12:12;30.60;39.30
64634;DHT22;51043;52.406;9.690;2022-07-29T15:14:39;30.70;39.80
64634;DHT22;51043;52.406;9.690;2022-07-29T15:17:06;30.80;37.90
64634;DHT22;51043;52.406;9.690;2022-07-29T15:19:35;30.70;38.60
64634;DHT22;51043;52.406;9.690;2022-07-29T15:22:02;30.60;39.00
64634;DHT22;51043;52.406;9.690;2022-07-29T15:24:31;30.40;38.80
64634;DHT22;51043;52.406;9.690;2022-07-29T15:26:58;30.30;39.00
64634;DHT22;51043;52.406;9.690;2022-07-29T15:29:24;30.10;39.10
64634;DHT22;51043;52.406;9.690;2022-07-29T15:31:51;29.90;38.60
64634;DHT22;51043;52.406;9.690;2022-07-29T15:34:18;29.70;39.10
64634;DHT22;51043;52.406;9.690;2022-07-29T15:36:47;29.60;39.60
64634;DHT22;51043;52.406;9.690;2022-07-29T15:39:18;29.50;40.30
64634;DHT22;51043;52.406;9.690;2022-07-29T15:41:46;29.40;39.90
64634;DHT22;51043;52.406;9.690;2022-07-29T15:44:13;29.10;40.30
64634;DHT22;51043;52.406;9.690;2022-07-29T15:46:40;28.90;39.90
64634;DHT22;51043;52.406;9.690;2022-07-29T15:49:25;28.70;40.50
64634;DHT22;51043;52.406;9.690;2022-07-29T15:51:58;28.30;41.50
64634;DHT22;51043;52.406;9.690;2022-07-29T15:54:26;28.00;41.70
64634;DHT22;51043;52.406;9.690;2022-07-29T15:56:53;27.80;42.60
64634;DHT22;51043;52.406;9.690;2022-07-29T15:59:21;27.50;42.80
64634;DHT22;51043;52.406;9.690;2022-07-29T16:01:48;27.30;43.10
64634;DHT22;51043;52.406;9.690;2022-07-29T16:04:15;27.00;42.90
64634;DHT22;51043;52.406;9.690;2022-07-29T16:06:43;26.90;43.10
64634;DHT22;51043;52.406;9.690;2022-07-29T16:09:11;26.90;43.70
64634;DHT22;51043;52.406;9.690;2022-07-29T16:11:38;26.90;43.30
64634;DHT22;51043;52.406;9.690;2022-07-29T16:14:05;26.90;43.70